sensor_id;sensor_type;location;lat;lon;timestamp;pressure;altitude;pressure_sealevel;temperature;humidity
68871;BME280;55906;52.278;6.808;2023-07-02T00:01:19;100461.06;;;18.00;71.15
68871;BME280;55906;52.278;6.808;2023-07-02T00:03:46;100457.53;;;18.01;71.03
68871;BME280;55906;52.278;6.808;2023-07-02T00:06:14;100459.28;;;18.02;71.03
68871;BME280;55906;52.278;6.808;2023-07-02T00:08:42;100453.97;;;18.00;71.31
68871;BME280;55906;52.278;6.808;2023-07-02T00:11:09;100450.50;;;17.94;71.72
68871;BME280;55906;52.278;6.808;2023-07-02T00:13:38;100458.44;;;17.97;71.67
68871;BME280;55906;52.278;6.808;2023-07-02T00:16:04;100454.88;;;17.98;71.60
68871;BME280;55906;52.278;6.808;2023-07-02T00:18:31;100454.03;;;17.96;71.86
68871;BME280;55906;52.278;6.808;2023-07-02T00:21:00;100452.25;;;17.95;72.07
68871;BME280;55906;52.278;6.808;2023-07-02T00:23:28;100456.69;;;17.96;71.86
68871;BME280;55906;52.278;6.808;2023-07-02T00:25:56;100451.34;;;17.97;71.95
68871;BME280;55906;52.278;6.808;2023-07-02T00:28:22;100453.13;;;17.97;72.04
68871;BME280;55906;52.278;6.808;2023-07-02T00:30:49;100456.66;;;17.99;71.91
68871;BME280;55906;52.278;6.808;2023-07-02T00:33:16;100454.91;;;17.96;72.25
68871;BME280;55906;52.278;6.808;2023-07-02T00:35:42;100454.00;;;17.97;72.24
68871;BME280;55906;52.278;6.808;2023-07-02T00:38:09;100450.47;;;17.97;72.34
68871;BME280;55906;52.278;6.808;2023-07-02T00:40:37;100462.84;;;18.01;72.41
68871;BME280;55906;52.278;6.808;2023-07-02T00:43:04;100452.28;;;17.91;73.48
68871;BME280;55906;52.278;6.808;2023-07-02T00:45:30;100456.84;;;17.80;75.99
68871;BME280;55906;52.278;6.808;2023-07-02T00:47:57;100449.00;;;17.67;78.04
68871;BME280;55906;52.278;6.808;2023-07-02T00:50:25;100453.59;;;17.48;79.70
68871;BME280;55906;52.278;6.808;2023-07-02T00:52:53;100455.47;;;17.35;80.62
68871;BME280;55906;52.278;6.808;2023-07-02T00:55:20;100460.94;;;17.18;81.97
68871;BME280;55906;52.278;6.808;2023-07-02T00:57:49;100459.22;;;17.10;82.77
68871;BME280;55906;52.278;6.808;2023-07-02T01:00:16;100458.41;;;17.02;82.90
68871;BME280;55906;52.278;6.808;2023-07-02T01:02:43;100451.34;;;16.98;83.50
68871;BME280;55906;52.278;6.808;2023-07-02T01:05:22;100451.38;;;16.90;83.61
68871;BME280;55906;52.278;6.808;2023-07-02T01:07:49;100456.69;;;16.91;84.53
68871;BME280;55906;52.278;6.808;2023-07-02T01:10:15;100451.38;;;16.88;83.88
68871;BME280;55906;52.278;6.808;2023-07-02T01:12:43;100455.81;;;16.92;83.73
68871;BME280;55906;52.278;6.808;2023-07-02T01:15:11;100451.38;;;16.91;84.02
68871;BME280;55906;52.278;6.808;2023-07-02T01:17:38;100471.75;;;16.94;84.44
68871;BME280;55906;52.278;6.808;2023-07-02T01:20:10;100467.31;;;16.90;85.06
68871;BME280;55906;52.278;6.808;2023-07-02T01:22:37;100462.91;;;16.92;84.92
68871;BME280;55906;52.278;6.808;2023-07-02T01:25:05;100460.22;;;16.95;84.81
68871;BME280;55906;52.278;6.808;2023-07-02T01:27:34;100462.00;;;16.93;84.90
68871;BME280;55906;52.278;6.808;2023-07-02T01:30:01;100469.06;;;16.97;nan
68871;BME280;55906;52.278;6.808;2023-07-02T01:32:29;100464.63;;;16.98;84.53
68871;BME280;55906;52.278;6.808;2023-07-02T01:34:55;100472.63;;;16.96;85.15
68871;BME280;55906;52.278;6.808;2023-07-02T01:37:25;100477.91;;;16.99;85.04
68871;BME280;55906;52.278;6.808;2023-07-02T01:39:52;100472.59;;;16.99;84.73
68871;BME280;55906;52.278;6.808;2023-07-02T01:42:19;100476.16;;;16.98;84.98
68871;BME280;55906;52.278;6.808;2023-07-02T01:44:47;100481.44;;;17.01;84.35
68871;BME280;55906;52.278;6.808;2023-07-02T01:47:14;100477.00;;;17.02;84.83
68871;BME280;55906;52.278;6.808;2023-07-02T01:49:42;100485.00;;;17.00;84.95
68871;BME280;55906;52.278;6.808;2023-07-02T01:52:08;100477.91;;;16.99;84.94
68871;BME280;55906;52.278;6.808;2023-07-02T01:54:36;100476.13;;;17.03;84.19
68871;BME280;55906;52.278;6.808;2023-07-02T01:57:03;100480.53;;;17.02;83.96
68871;BME280;55906;52.278;6.808;2023-07-02T01:59:30;100474.34;;;17.00;83.43
68871;BME280;55906;52.278;6.808;2023-07-02T02:01:57;100478.78;;;17.00;83.75
68871;BME280;55906;52.278;6.808;2023-07-02T02:04:23;100482.38;;;16.95;83.71
68871;BME280;55906;52.278;6.808;2023-07-02T02:06:50;100483.25;;;16.96;82.78
68871;BME280;55906;52.278;6.808;2023-07-02T02:09:17;100483.25;;;16.93;82.67
68871;BME280;55906;52.278;6.808;2023-07-02T02:11:47;100479.72;;;16.95;82.34
68871;BME280;55906;52.278;6.808;2023-07-02T02:14:14;100481.50;;;16.93;81.95
68871;BME280;55906;52.278;6.808;2023-07-02T02:16:41;100489.47;;;16.86;81.39
68871;BME280;55906;52.278;6.808;2023-07-02T02:19:10;100478.03;;;16.75;81.63
68871;BME280;55906;52.278;6.808;2023-07-02T02:21:37;100492.16;;;16.83;81.21
68871;BME280;55906;52.278;6.808;2023-07-02T02:24:05;100495.72;;;16.79;81.47
68871;BME280;55906;52.278;6.808;2023-07-02T02:26:32;100494.84;;;16.77;81.56
68871;BME280;55906;52.278;6.808;2023-07-02T02:29:00;100504.56;;;16.78;81.40
68871;BME280;55906;52.278;6.808;2023-07-02T02:31:26;100503.72;;;16.74;81.44
68871;BME280;55906;52.278;6.808;2023-07-02T02:33:53;100508.16;;;16.71;81.64
68871;BME280;55906;52.278;6.808;2023-07-02T02:36:20;100512.59;;;16.67;82.06
68871;BME280;55906;52.278;6.808;2023-07-02T02:38:46;100503.75;;;16.65;82.16
68871;BME280;55906;52.278;6.808;2023-07-02T02:41:13;100505.53;;;16.66;82.22
68871;BME280;55906;52.278;6.808;2023-07-02T02:43:41;100503.75;;;16.62;82.24
68871;BME280;55906;52.278;6.808;2023-07-02T02:46:09;100507.28;;;16.62;81.89
68871;BME280;55906;52.278;6.808;2023-07-02T02:48:35;100507.28;;;16.59;81.90
68871;BME280;55906;52.278;6.808;2023-07-02T02:51:03;100509.06;;;16.59;81.98
68871;BME280;55906;52.278;6.808;2023-07-02T02:53:30;100504.66;;;16.53;82.30
68871;BME280;55906;52.278;6.808;2023-07-02T02:55:56;100508.22;;;16.52;81.97
68871;BME280;55906;52.278;6.808;2023-07-02T02:58:23;100513.53;;;16.52;81.86
68871;BME280;55906;52.278;6.808;2023-07-02T03:00:49;100516.19;;;16.51;81.69
68871;BME280;55906;52.278;6.808;2023-07-02T03:03:18;100518.84;;;16.49;81.51
68871;BME280;55906;52.278;6.808;2023-07-02T03:05:45;100520.66;;;16.41;81.00
68871;BME280;55906;52.278;6.808;2023-07-02T03:08:13;100523.31;;;16.41;81.13
68871;BME280;55906;52.278;6.808;2023-07-02T03:10:40;100524.22;;;16.34;81.03
68871;BME280;55906;52.278;6.808;2023-07-02T03:13:06;100525.13;;;16.30;80.82
68871;BME280;55906;52.278;6.808;2023-07-02T03:15:33;100528.66;;;16.32;80.48
68871;BME280;55906;52.278;6.808;2023-07-02T03:18:00;100526.91;;;16.22;80.35
68871;BME280;55906;52.278;6.808;2023-07-02T03:20:28;100530.44;;;16.25;80.31
68871;BME280;55906;52.278;6.808;2023-07-02T03:22:54;100536.66;;;16.18;79.91
68871;BME280;55906;52.278;6.808;2023-07-02T03:25:21;100541.97;;;16.17;79.79
68871;BME280;55906;52.278;6.808;2023-07-02T03:27:47;100546.41;;;16.12;79.98
68871;BME280;55906;52.278;6.808;2023-07-02T03:30:14;100545.53;;;16.10;80.19
68871;BME280;55906;52.278;6.808;2023-07-02T03:32:40;100553.47;;;16.07;80.44
68871;BME280;55906;52.278;6.808;2023-07-02T03:35:07;100546.41;;;16.03;80.14
68871;BME280;55906;52.278;6.808;2023-07-02T03:37:35;100553.50;;;16.02;80.28
68871;BME280;55906;52.278;6.808;2023-07-02T03:40:02;100554.38;;;16.03;80.10
68871;BME280;55906;52.278;6.808;2023-07-02T03:42:29;100552.59;;;16.02;80.19
68871;BME280;55906;52.278;6.808;2023-07-02T03:44:56;100554.38;;;15.99;80.54
68871;BME280;55906;52.278;6.808;2023-07-02T03:47:22;100557.91;;;15.98;80.57
68871;BME280;55906;52.278;6.808;2023-07-02T03:49:49;100554.38;;;16.03;80.47
68871;BME280;55906;52.278;6.808;2023-07-02T03:52:16;100563.22;;;16.02;80.16
68871;BME280;55906;52.278;6.808;2023-07-02T03:54:44;100565.88;;;16.05;80.47
68871;BME280;55906;52.278;6.808;2023-07-02T03:57:10;100559.69;;;16.06;80.31
68871;BME280;55906;52.278;6.808;2023-07-02T03:59:37;100568.53;;;16.09;80.69
68871;BME280;55906;52.278;6.808;2023-07-02T04:02:04;100571.16;;;16.09;80.61
68871;BME280;55906;52.278;6.808;2023-07-02T04:04:31;100566.75;;;16.10;81.00
68871;BME280;55906;52.278;6.808;2023-07-02T04:06:57;100570.28;;;16.06;81.11
68871;BME280;55906;52.278;6.808;2023-07-02T04:09:24;100575.59;;;16.03;81.39
68871;BME280;55906;52.278;6.808;2023-07-02T04:11:52;100568.53;;;16.05;81.32
68871;BME280;55906;52.278;6.808;2023-07-02T04:14:18;100579.16;;;16.02;81.51
68871;BME280;55906;52.278;6.808;2023-07-02T04:16:45;100577.38;;;16.02;81.46
68871;BME280;55906;52.278;6.808;2023-07-02T04:19:12;100574.72;;;16.00;81.45
68871;BME280;55906;52.278;6.808;2023-07-02T04:21:38;100582.69;;;16.02;81.05
68871;BME280;55906;52.278;6.808;2023-07-02T04:24:05;100585.34;;;16.00;80.76
68871;BME280;55906;52.278;6.808;2023-07-02T04:26:32;100573.84;;;16.02;80.56
68871;BME280;55906;52.278;6.808;2023-07-02T04:29:00;100579.16;;;15.98;80.34
68871;BME280;55906;52.278;6.808;2023-07-02T04:31:27;100590.66;;;15.99;80.28
68871;BME280;55906;52.278;6.808;2023-07-02T04:33:53;100589.75;;;16.00;80.23
68871;BME280;55906;52.278;6.808;2023-07-02T04:36:20;100591.53;;;15.96;79.86
68871;BME280;55906;52.278;6.808;2023-07-02T04:38:47;100595.94;;;15.99;79.62
68871;BME280;55906;52.278;6.808;2023-07-02T04:41:13;100601.25;;;15.97;79.40
68871;BME280;55906;52.278;6.808;2023-07-02T04:43:40;100591.53;;;15.95;79.37
68871;BME280;55906;52.278;6.808;2023-07-02T04:46:08;100584.47;;;15.95;79.14
68871;BME280;55906;52.278;6.808;2023-07-02T04:48:37;100597.72;;;16.02;78.84
68871;BME280;55906;52.278;6.808;2023-07-02T04:51:04;100598.59;;;15.97;78.04
68871;BME280;55906;52.278;6.808;2023-07-02T04:53:30;100607.44;;;15.99;78.14
68871;BME280;55906;52.278;6.808;2023-07-02T04:55:57;100604.78;;;16.01;77.61
68871;BME280;55906;52.278;6.808;2023-07-02T04:58:23;100608.34;;;16.03;77.50
68871;BME280;55906;52.278;6.808;2023-07-02T05:00:50;100604.78;;;16.06;76.87
68871;BME280;55906;52.278;6.808;2023-07-02T05:03:18;100609.22;;;16.16;77.01
68871;BME280;55906;52.278;6.808;2023-07-02T05:05:45;100612.75;;;16.12;76.51
68871;BME280;55906;52.278;6.808;2023-07-02T05:08:11;100615.41;;;16.13;76.30
68871;BME280;55906;52.278;6.808;2023-07-02T05:10:38;100618.06;;;16.13;75.93
68871;BME280;55906;52.278;6.808;2023-07-02T05:13:04;100616.28;;;16.14;75.53
68871;BME280;55906;52.278;6.808;2023-07-02T05:15:31;100614.50;;;16.14;75.02
68871;BME280;55906;52.278;6.808;2023-07-02T05:17:57;100626.00;;;16.16;74.74
68871;BME280;55906;52.278;6.808;2023-07-02T05:20:26;100623.34;;;16.21;74.39
68871;BME280;55906;52.278;6.808;2023-07-02T05:22:52;100617.16;;;16.16;73.90
68871;BME280;55906;52.278;6.808;2023-07-02T05:25:19;100622.47;;;16.19;73.61
68871;BME280;55906;52.278;6.808;2023-07-02T05:27:46;100621.59;;;16.23;73.48
68871;BME280;55906;52.278;6.808;2023-07-02T05:30:13;100620.69;;;16.24;72.98
68871;BME280;55906;52.278;6.808;2023-07-02T05:32:39;100635.75;;;16.26;72.99
68871;BME280;55906;52.278;6.808;2023-07-02T05:35:07;100627.78;;;16.29;72.72
68871;BME280;55906;52.278;6.808;2023-07-02T05:37:35;100628.63;;;16.38;72.59
68871;BME280;55906;52.278;6.808;2023-07-02T05:40:01;100626.88;;;16.38;71.65
68871;BME280;55906;52.278;6.808;2023-07-02T05:42:28;100630.41;;;16.43;72.04
68871;BME280;55906;52.278;6.808;2023-07-02T05:44:54;100633.03;;;16.48;71.27
68871;BME280;55906;52.278;6.808;2023-07-02T05:47:21;100630.38;;;16.52;70.80
68871;BME280;55906;52.278;6.808;2023-07-02T05:49:48;100632.13;;;16.59;70.76
68871;BME280;55906;52.278;6.808;2023-07-02T05:52:14;100630.34;;;16.61;70.15
68871;BME280;55906;52.278;6.808;2023-07-02T05:54:42;100638.31;;;16.74;70.14
68871;BME280;55906;52.278;6.808;2023-07-02T05:57:09;100637.41;;;16.81;69.84
68871;BME280;55906;52.278;6.808;2023-07-02T05:59:37;100642.72;;;16.81;68.98
68871;BME280;55906;52.278;6.808;2023-07-02T06:02:04;100640.94;;;16.83;68.47
68871;BME280;55906;52.278;6.808;2023-07-02T06:04:31;100649.81;;;16.94;68.64
68871;BME280;55906;52.278;6.808;2023-07-02T06:06:57;100636.50;;;17.00;68.27
68871;BME280;55906;52.278;6.808;2023-07-02T06:09:24;100648.84;;;17.09;68.09
68871;BME280;55906;52.278;6.808;2023-07-02T06:11:52;100646.19;;;17.13;67.53
68871;BME280;55906;52.278;6.808;2023-07-02T06:14:18;100651.47;;;17.16;67.31
68871;BME280;55906;52.278;6.808;2023-07-02T06:16:45;100658.56;;;17.17;66.74
68871;BME280;55906;52.278;6.808;2023-07-02T06:19:12;100651.44;;;17.22;66.51
68871;BME280;55906;52.278;6.808;2023-07-02T06:21:38;100659.38;;;17.32;66.38
68871;BME280;55906;52.278;6.808;2023-07-02T06:24:05;100658.47;;;17.34;66.04
68871;BME280;55906;52.278;6.808;2023-07-02T06:26:32;100654.88;;;17.43;65.93
68871;BME280;55906;52.278;6.808;2023-07-02T06:29:00;100659.28;;;17.48;65.12
68871;BME280;55906;52.278;6.808;2023-07-02T06:31:27;100658.41;;;17.49;64.35
68871;BME280;55906;52.278;6.808;2023-07-02T06:33:53;100657.47;;;17.53;64.15
68871;BME280;55906;52.278;6.808;2023-07-02T06:36:20;100665.41;;;17.64;64.06
68871;BME280;55906;52.278;6.808;2023-07-02T06:38:47;100663.66;;;17.66;63.35
68871;BME280;55906;52.278;6.808;2023-07-02T06:41:14;100674.25;;;17.65;62.59
68871;BME280;55906;52.278;6.808;2023-07-02T06:43:41;100671.56;;;17.75;62.25
68871;BME280;55906;52.278;6.808;2023-07-02T06:46:11;100678.56;;;17.88;62.53
68871;BME280;55906;52.278;6.808;2023-07-02T06:48:38;100675.00;;;17.91;62.49
68871;BME280;55906;52.278;6.808;2023-07-02T06:51:04;100693.56;;;17.99;62.46
68871;BME280;55906;52.278;6.808;2023-07-02T06:53:32;100692.66;;;18.04;62.20
68871;BME280;55906;52.278;6.808;2023-07-02T06:55:59;100690.03;;;17.98;62.03
68871;BME280;55906;52.278;6.808;2023-07-02T06:58:25;100704.16;;;18.08;62.04
68871;BME280;55906;52.278;6.808;2023-07-02T07:00:52;100696.13;;;18.14;61.90
68871;BME280;55906;52.278;6.808;2023-07-02T07:03:20;100704.00;;;18.31;61.79
68871;BME280;55906;52.278;6.808;2023-07-02T07:05:46;100719.16;;;18.22;61.31
68871;BME280;55906;52.278;6.808;2023-07-02T07:08:13;100703.16;;;18.26;60.60
68871;BME280;55906;52.278;6.808;2023-07-02T07:10:39;100711.03;;;18.38;60.54
68871;BME280;55906;52.278;6.808;2023-07-02T07:13:06;100706.59;;;18.38;59.79
68871;BME280;55906;52.278;6.808;2023-07-02T07:15:34;100714.53;;;18.44;59.63
68871;BME280;55906;52.278;6.808;2023-07-02T07:18:01;100716.25;;;18.51;59.93
68871;BME280;55906;52.278;6.808;2023-07-02T07:20:29;100717.09;;;18.55;59.38
68871;BME280;55906;52.278;6.808;2023-07-02T07:22:56;100712.63;;;18.60;59.01
68871;BME280;55906;52.278;6.808;2023-07-02T07:25:23;100721.47;;;18.67;58.44
68871;BME280;55906;52.278;6.808;2023-07-02T07:27:51;100715.06;;;18.84;58.30
68871;BME280;55906;52.278;6.808;2023-07-02T07:30:18;100721.31;;;18.82;58.79
68871;BME280;55906;52.278;6.808;2023-07-02T07:32:48;100719.50;;;18.85;57.90
68871;BME280;55906;52.278;6.808;2023-07-02T07:35:15;100717.75;;;18.81;58.05
68871;BME280;55906;52.278;6.808;2023-07-02T07:37:43;100726.63;;;18.83;57.00
68871;BME280;55906;52.278;6.808;2023-07-02T07:40:11;100736.41;;;18.83;56.01
68871;BME280;55906;52.278;6.808;2023-07-02T07:42:38;100729.31;;;18.80;54.28
68871;BME280;55906;52.278;6.808;2023-07-02T07:45:05;100739.00;;;18.91;54.06
68871;BME280;55906;52.278;6.808;2023-07-02T07:47:32;100738.84;;;19.06;54.02
68871;BME280;55906;52.278;6.808;2023-07-02T07:49:59;100731.66;;;19.12;54.15
68871;BME280;55906;52.278;6.808;2023-07-02T07:52:25;100714.44;;;19.38;54.45
68871;BME280;55906;52.278;6.808;2023-07-02T07:54:53;100742.97;;;19.31;52.90
68871;BME280;55906;52.278;6.808;2023-07-02T07:57:20;100721.44;;;19.53;53.17
68871;BME280;55906;52.278;6.808;2023-07-02T07:59:46;100729.41;;;19.56;53.26
68871;BME280;55906;52.278;6.808;2023-07-02T08:02:13;100735.66;;;19.52;53.08
68871;BME280;55906;52.278;6.808;2023-07-02T08:04:40;100727.66;;;19.53;53.68
68871;BME280;55906;52.278;6.808;2023-07-02T08:07:06;100724.91;;;19.59;54.04
68871;BME280;55906;52.278;6.808;2023-07-02T08:09:34;100741.13;;;19.38;54.22
68871;BME280;55906;52.278;6.808;2023-07-02T08:12:03;100742.97;;;19.31;54.04
68871;BME280;55906;52.278;6.808;2023-07-02T08:14:29;100742.22;;;19.22;53.41
68871;BME280;55906;52.278;6.808;2023-07-02T08:16:56;100747.38;;;19.35;53.54
68871;BME280;55906;52.278;6.808;2023-07-02T08:19:23;100738.03;;;19.74;52.39
68871;BME280;55906;52.278;6.808;2023-07-02T08:21:50;100736.72;;;20.03;51.89
68871;BME280;55906;52.278;6.808;2023-07-02T08:24:16;100745.94;;;19.82;51.33
68871;BME280;55906;52.278;6.808;2023-07-02T08:26:43;100735.41;;;19.71;51.41
68871;BME280;55906;52.278;6.808;2023-07-02T08:29:12;100740.72;;;19.73;51.29
68871;BME280;55906;52.278;6.808;2023-07-02T08:31:40;100747.94;;;19.66;51.83
68871;BME280;55906;52.278;6.808;2023-07-02T08:34:06;100744.50;;;19.57;52.13
68871;BME280;55906;52.278;6.808;2023-07-02T08:36:33;100737.28;;;19.65;51.96
68871;BME280;55906;52.278;6.808;2023-07-02T08:39:00;100750.66;;;19.63;51.27
68871;BME280;55906;52.278;6.808;2023-07-02T08:41:28;100764.06;;;19.59;51.42
68871;BME280;55906;52.278;6.808;2023-07-02T08:43:55;100747.84;;;19.74;51.78
68871;BME280;55906;52.278;6.808;2023-07-02T08:46:23;100736.94;;;19.89;50.78
68871;BME280;55906;52.278;6.808;2023-07-02T08:48:50;100750.03;;;20.06;50.02
68871;BME280;55906;52.278;6.808;2023-07-02T08:51:19;100743.81;;;20.05;49.09
68871;BME280;55906;52.278;6.808;2023-07-02T08:53:46;100776.06;;;19.92;49.13
68871;BME280;55906;52.278;6.808;2023-07-02T08:56:13;100781.50;;;19.86;49.13
68871;BME280;55906;52.278;6.808;2023-07-02T08:58:42;100779.91;;;19.72;49.81
68871;BME280;55906;52.278;6.808;2023-07-02T09:01:12;100782.44;;;19.81;49.89
68871;BME280;55906;52.278;6.808;2023-07-02T09:03:40;100773.47;;;19.87;49.45
68871;BME280;55906;52.278;6.808;2023-07-02T09:06:08;100766.91;;;20.09;48.41
68871;BME280;55906;52.278;6.808;2023-07-02T09:08:38;100771.81;;;20.38;48.69
68871;BME280;55906;52.278;6.808;2023-07-02T09:11:06;100766.78;;;20.74;46.94
68871;BME280;55906;52.278;6.808;2023-07-02T09:13:45;100769.66;;;20.62;46.29
68871;BME280;55906;52.278;6.808;2023-07-02T09:16:23;100786.00;;;20.43;46.13
68871;BME280;55906;52.278;6.808;2023-07-02T09:18:59;100788.72;;;20.40;46.35
68871;BME280;55906;52.278;6.808;2023-07-02T09:21:26;100784.09;;;20.52;46.65
68871;BME280;55906;52.278;6.808;2023-07-02T09:23:54;100788.16;;;20.74;45.12
68871;BME280;55906;52.278;6.808;2023-07-02T09:26:21;100765.28;;;21.08;44.13
68871;BME280;55906;52.278;6.808;2023-07-02T09:28:48;100768.25;;;21.41;42.93
68871;BME280;55906;52.278;6.808;2023-07-02T09:31:15;100777.66;;;22.00;41.19
68871;BME280;55906;52.278;6.808;2023-07-02T09:33:42;100780.94;;;22.16;41.08
68871;BME280;55906;52.278;6.808;2023-07-02T09:36:11;100784.56;;;22.14;39.18
68871;BME280;55906;52.278;6.808;2023-07-02T09:38:38;100785.56;;;22.08;38.97
68871;BME280;55906;52.278;6.808;2023-07-02T09:41:07;100785.28;;;22.59;39.72
68871;BME280;55906;52.278;6.808;2023-07-02T09:43:35;100784.03;;;22.37;39.14
68871;BME280;55906;52.278;6.808;2023-07-02T09:46:01;100782.09;;;22.43;38.76
68871;BME280;55906;52.278;6.808;2023-07-02T09:48:31;100770.59;;;22.74;38.38
68871;BME280;55906;52.278;6.808;2023-07-02T09:51:01;100770.53;;;23.11;37.69
68871;BME280;55906;52.278;6.808;2023-07-02T09:53:30;100780.13;;;23.19;37.16
68871;BME280;55906;52.278;6.808;2023-07-02T09:55:57;100773.88;;;22.86;38.23
68871;BME280;55906;52.278;6.808;2023-07-02T09:58:27;100782.72;;;22.54;37.89
68871;BME280;55906;52.278;6.808;2023-07-02T10:01:11;100792.56;;;22.89;36.58
68871;BME280;55906;52.278;6.808;2023-07-02T10:03:57;100785.78;;;23.09;36.53
68871;BME280;55906;52.278;6.808;2023-07-02T10:06:24;100788.75;;;23.30;36.22
68871;BME280;55906;52.278;6.808;2023-07-02T10:08:56;100792.84;;;23.45;36.76
68871;BME280;55906;52.278;6.808;2023-07-02T10:11:33;100783.84;;;23.79;34.00
68871;BME280;55906;52.278;6.808;2023-07-02T10:14:00;100786.63;;;24.05;34.29
68871;BME280;55906;52.278;6.808;2023-07-02T10:16:27;100781.28;;;24.04;34.78
68871;BME280;55906;52.278;6.808;2023-07-02T10:19:08;100800.84;;;24.09;34.47
68871;BME280;55906;52.278;6.808;2023-07-02T10:21:34;100798.25;;;24.06;33.85
68871;BME280;55906;52.278;6.808;2023-07-02T10:24:10;100778.72;;;24.56;32.57
68871;BME280;55906;52.278;6.808;2023-07-02T10:26:37;100801.41;;;24.48;32.86
68871;BME280;55906;52.278;6.808;2023-07-02T10:29:06;100791.16;;;24.33;33.76
68871;BME280;55906;52.278;6.808;2023-07-02T10:31:33;100791.06;;;24.06;33.04
68871;BME280;55906;52.278;6.808;2023-07-02T10:33:59;100799.41;;;23.97;33.95
68871;BME280;55906;52.278;6.808;2023-07-02T10:36:29;100804.06;;;23.92;33.10
68871;BME280;55906;52.278;6.808;2023-07-02T10:39:01;100816.88;;;24.41;32.25
68871;BME280;55906;52.278;6.808;2023-07-02T10:41:31;100796.56;;;24.59;32.43
68871;BME280;55906;52.278;6.808;2023-07-02T10:44:08;100792.97;;;24.86;33.65
68871;BME280;55906;52.278;6.808;2023-07-02T10:46:34;100812.03;;;24.80;32.16
68871;BME280;55906;52.278;6.808;2023-07-02T10:49:09;100816.09;;;24.38;32.89
68871;BME280;55906;52.278;6.808;2023-07-02T10:51:37;100802.56;;;24.11;33.38
68871;BME280;55906;52.278;6.808;2023-07-02T10:54:04;100814.19;;;23.82;33.34
68871;BME280;55906;52.278;6.808;2023-07-02T10:56:32;100814.50;;;23.72;33.26
68871;BME280;55906;52.278;6.808;2023-07-02T10:58:59;100812.22;;;23.58;33.97
68871;BME280;55906;52.278;6.808;2023-07-02T11:01:27;100814.25;;;23.81;34.01
68871;BME280;55906;52.278;6.808;2023-07-02T11:04:01;100811.75;;;24.04;33.99
68871;BME280;55906;52.278;6.808;2023-07-02T11:06:30;100806.38;;;24.34;34.28
68871;BME280;55906;52.278;6.808;2023-07-02T11:08:58;100818.97;;;24.60;33.41
68871;BME280;55906;52.278;6.808;2023-07-02T11:11:24;100813.47;;;24.91;32.06
68871;BME280;55906;52.278;6.808;2023-07-02T11:13:53;100804.69;;;24.85;31.86
68871;BME280;55906;52.278;6.808;2023-07-02T11:16:20;100813.25;;;24.97;30.97
68871;BME280;55906;52.278;6.808;2023-07-02T11:18:50;100813.59;;;24.60;31.83
68871;BME280;55906;52.278;6.808;2023-07-02T11:21:16;100808.66;;;24.74;31.80
68871;BME280;55906;52.278;6.808;2023-07-02T11:23:43;100818.66;;;24.97;31.02
68871;BME280;55906;52.278;6.808;2023-07-02T11:26:09;100812.00;;;25.33;30.99
68871;BME280;55906;52.278;6.808;2023-07-02T11:28:46;100813.91;;;25.55;30.94
68871;BME280;55906;52.278;6.808;2023-07-02T11:31:24;100798.31;;;25.88;31.81
68871;BME280;55906;52.278;6.808;2023-07-02T11:33:50;100808.00;;;26.40;30.25
68871;BME280;55906;52.278;6.808;2023-07-02T11:36:20;100806.72;;;26.49;30.51
68871;BME280;55906;52.278;6.808;2023-07-02T11:38:48;100806.00;;;25.75;30.13
68871;BME280;55906;52.278;6.808;2023-07-02T11:41:15;100805.63;;;25.36;31.09
68871;BME280;55906;52.278;6.808;2023-07-02T11:43:42;100824.56;;;25.08;30.80
68871;BME280;55906;52.278;6.808;2023-07-02T11:46:08;100819.13;;;25.09;31.44
68871;BME280;55906;52.278;6.808;2023-07-02T11:48:36;100822.78;;;25.33;30.20
68871;BME280;55906;52.278;6.808;2023-07-02T11:51:03;100829.81;;;25.37;29.85
68871;BME280;55906;52.278;6.808;2023-07-02T11:53:30;100828.59;;;25.46;28.91
68871;BME280;55906;52.278;6.808;2023-07-02T11:55:56;100821.00;;;25.82;28.20
68871;BME280;55906;52.278;6.808;2023-07-02T11:58:23;100819.59;;;25.72;28.71
68871;BME280;55906;52.278;6.808;2023-07-02T12:00:50;100824.25;;;26.15;29.00
68871;BME280;55906;52.278;6.808;2023-07-02T12:03:17;100828.56;;;26.64;28.23
68871;BME280;55906;52.278;6.808;2023-07-02T12:05:45;100824.81;;;26.68;27.78
68871;BME280;55906;52.278;6.808;2023-07-02T12:08:12;100802.63;;;27.45;28.57
68871;BME280;55906;52.278;6.808;2023-07-02T12:10:38;100814.41;;;27.64;27.52
68871;BME280;55906;52.278;6.808;2023-07-02T12:13:05;100816.63;;;27.93;26.10
68871;BME280;55906;52.278;6.808;2023-07-02T12:15:32;100816.41;;;27.79;25.34
68871;BME280;55906;52.278;6.808;2023-07-02T12:17:58;100837.66;;;27.05;25.54
68871;BME280;55906;52.278;6.808;2023-07-02T12:20:25;100823.69;;;27.16;26.11
68871;BME280;55906;52.278;6.808;2023-07-02T12:22:53;100826.03;;;27.46;25.91
68871;BME280;55906;52.278;6.808;2023-07-02T12:25:19;100813.13;;;27.91;26.15
68871;BME280;55906;52.278;6.808;2023-07-02T12:27:46;100804.88;;;28.13;26.80
68871;BME280;55906;52.278;6.808;2023-07-02T12:30:13;100819.59;;;28.26;26.12
68871;BME280;55906;52.278;6.808;2023-07-02T12:32:42;100827.84;;;28.42;24.93
68871;BME280;55906;52.278;6.808;2023-07-02T12:35:09;100822.22;;;28.28;24.71
68871;BME280;55906;52.278;6.808;2023-07-02T12:37:42;100825.50;;;28.53;23.85
68871;BME280;55906;52.278;6.808;2023-07-02T12:40:11;100823.00;;;28.49;24.71
68871;BME280;55906;52.278;6.808;2023-07-02T12:42:38;100824.03;;;28.84;24.26
68871;BME280;55906;52.278;6.808;2023-07-02T12:45:06;100832.34;;;28.60;24.17
68871;BME280;55906;52.278;6.808;2023-07-02T12:47:33;100829.94;;;28.17;24.75
68871;BME280;55906;52.278;6.808;2023-07-02T12:50:00;100843.16;;;27.85;24.96
68871;BME280;55906;52.278;6.808;2023-07-02T12:52:28;100838.28;;;27.93;25.38